createdAt,value
2023-11-25T00:00:02.744Z,95.8
2023-11-25T00:01:33.392Z,95.9
2023-11-25T00:03:04.175Z,95
2023-11-25T00:04:34.694Z,95.6
2023-11-25T00:06:05.272Z,94.8
2023-11-25T00:07:35.820Z,95.6
2023-11-25T00:09:06.317Z,95
2023-11-25T00:10:36.902Z,94.4
2023-11-25T00:12:07.445Z,95.6
2023-11-25T00:13:37.899Z,94.7
2023-11-25T00:15:08.501Z,95.1
2023-11-25T00:16:39.101Z,95.9
2023-11-25T00:18:09.698Z,96.3
2023-11-25T00:19:40.216Z,94.9
2023-11-25T00:21:10.668Z,95.3
2023-11-25T00:22:41.160Z,94.7
2023-11-25T00:24:11.692Z,95.7
2023-11-25T00:25:42.746Z,95.3
2023-11-25T00:27:13.281Z,95.9
2023-11-25T00:28:43.765Z,94.9
2023-11-25T00:30:14.241Z,95.7
2023-11-25T00:31:44.913Z,95.7
2023-11-25T00:33:15.410Z,96.4
2023-11-25T00:34:45.966Z,95.7
2023-11-25T00:36:16.531Z,95.3
2023-11-25T00:37:46.958Z,95.2
2023-11-25T00:39:17.729Z,95.7
2023-11-25T00:40:48.271Z,95.8
2023-11-25T00:42:18.914Z,95.7
2023-11-25T00:43:49.456Z,95.3
2023-11-25T00:45:19.953Z,95.9
2023-11-25T00:46:50.482Z,95.6
2023-11-25T00:48:21.057Z,95.8
2023-11-25T00:49:51.522Z,95.3
2023-11-25T00:51:21.945Z,95.3
2023-11-25T00:52:52.382Z,95.2
2023-11-25T00:54:22.914Z,95.2
2023-11-25T00:55:53.414Z,94
2023-11-25T00:57:23.838Z,95.4
2023-11-25T00:58:54.251Z,94.9
2023-11-25T01:00:24.731Z,95.6
2023-11-25T01:01:55.297Z,95.4
2023-11-25T01:03:26.033Z,95.1
2023-11-25T01:04:56.506Z,95
2023-11-25T01:06:26.998Z,95.7
2023-11-25T01:07:57.486Z,95.4
2023-11-25T01:09:27.937Z,95.7
2023-11-25T01:10:58.354Z,96
2023-11-25T01:12:28.756Z,95.9
2023-11-25T01:13:59.166Z,96.2
2023-11-25T01:15:29.599Z,95.2
2023-11-25T01:17:00.122Z,95.7
2023-11-25T01:18:30.750Z,95.5
2023-11-25T01:20:01.213Z,95.9
2023-11-25T01:21:31.693Z,96
2023-11-25T01:23:02.099Z,95.9
2023-11-25T01:24:32.548Z,95.3
2023-11-25T01:26:02.944Z,96.2
2023-11-25T01:27:33.361Z,94.9
2023-11-25T01:29:03.839Z,95.3
2023-11-25T01:30:34.308Z,95.5
2023-11-25T01:32:04.748Z,95.2
2023-11-25T01:33:35.248Z,94.8
2023-11-25T01:35:05.726Z,94.9
2023-11-25T01:36:36.286Z,95.8
2023-11-25T01:38:06.710Z,94.9
2023-11-25T01:39:37.183Z,95.5
2023-11-25T01:41:07.731Z,94.7
2023-11-25T01:41:24.635Z,94.6
2023-11-25T01:42:55.068Z,95.3
2023-11-25T01:44:25.494Z,95.2
2023-11-25T01:45:56.005Z,95.6
2023-11-25T01:47:26.544Z,95.7
2023-11-25T01:48:56.983Z,95.9
2023-11-25T01:50:27.426Z,96.2
2023-11-25T01:51:57.901Z,95
2023-11-25T01:53:28.372Z,94.7
2023-11-25T01:54:58.918Z,95
2023-11-25T01:56:29.361Z,94.5
2023-11-25T01:57:59.815Z,95.1
2023-11-25T01:59:30.230Z,95.3
2023-11-25T02:01:00.748Z,95.5
2023-11-25T02:02:31.533Z,95.9
2023-11-25T02:04:02.426Z,95.1
2023-11-25T02:05:32.987Z,94.9
2023-11-25T02:07:03.582Z,95.5
2023-11-25T02:08:34.072Z,95.5
2023-11-25T02:10:04.534Z,95.1
2023-11-25T02:11:35.100Z,94.8
2023-11-25T02:13:05.587Z,95.2
2023-11-25T02:14:36.163Z,95.4
2023-11-25T02:16:06.806Z,94.9
2023-11-25T02:17:37.580Z,96.2
2023-11-25T02:19:08.081Z,95
2023-11-25T02:20:38.606Z,95.2
2023-11-25T02:22:09.125Z,94.8
2023-11-25T02:23:39.604Z,94.2
2023-11-25T02:25:10.119Z,94
2023-11-25T02:26:40.679Z,93.6
2023-11-25T02:28:11.204Z,94.4
2023-11-25T02:29:41.686Z,94.8
2023-11-25T02:31:12.287Z,95.1
2023-11-25T02:32:42.863Z,94.3
2023-11-25T02:34:13.377Z,95.8
2023-11-25T02:35:43.885Z,94.9
2023-11-25T02:37:14.355Z,95.1
2023-11-25T02:38:44.835Z,94.9
2023-11-25T02:40:15.358Z,94.8
2023-11-25T02:41:45.865Z,94.3
2023-11-25T02:43:16.381Z,94.5
2023-11-25T02:44:46.810Z,95.2
2023-11-25T02:46:17.326Z,95.5
2023-11-25T02:47:47.947Z,94.6
2023-11-25T02:49:18.862Z,96
2023-11-25T02:50:49.600Z,95
2023-11-25T02:52:21.227Z,94.9
2023-11-25T02:53:52.615Z,95.3
2023-11-25T02:55:23.130Z,95.5
2023-11-25T02:56:53.637Z,95.8
2023-11-25T02:58:24.070Z,95
2023-11-25T02:59:54.485Z,95.3
2023-11-25T03:03:33.639Z,95.5
2023-11-25T03:05:04.749Z,95
2023-11-25T03:06:35.438Z,95.6
2023-11-25T03:08:06.052Z,95.7
2023-11-25T03:09:39.161Z,95.5
2023-11-25T03:11:09.835Z,95.1
2023-11-25T03:12:40.394Z,95.1
2023-11-25T03:14:11.250Z,94.7
2023-11-25T03:17:02.663Z,95.9
2023-11-25T03:18:33.507Z,94
2023-11-25T03:20:04.165Z,92.2
2023-11-25T03:21:37.498Z,93.3
2023-11-25T03:23:11.543Z,94.7
2023-11-25T03:24:42.200Z,93.9
2023-11-25T03:28:56.967Z,94.3
2023-11-25T03:30:27.589Z,94.3
2023-11-25T03:32:03.527Z,94.2
2023-11-25T03:33:39.936Z,93.7
2023-11-25T03:35:10.597Z,94.1
2023-11-25T03:36:41.084Z,95.1
2023-11-25T03:38:14.506Z,94.2
2023-11-25T03:39:48.997Z,94.7
2023-11-25T03:41:20.445Z,94.1
2023-11-25T03:42:51.514Z,94
2023-11-25T03:44:22.042Z,94.3
2023-11-25T03:45:52.996Z,94.8
2023-11-25T03:47:23.696Z,94.7
2023-11-25T03:48:57.111Z,94.7
2023-11-25T03:50:27.646Z,95.3
2023-11-25T03:51:58.436Z,95.2
2023-11-25T03:53:32.362Z,94.4
2023-11-25T03:55:05.931Z,95.1
2023-11-25T03:56:36.812Z,95.2
2023-11-25T03:58:07.916Z,94.9
2023-11-25T03:59:39.261Z,95
2023-11-25T04:01:10.241Z,94.2
2023-11-25T04:02:41.121Z,93.3
2023-11-25T04:04:11.971Z,94.7
2023-11-25T04:05:45.170Z,94.4
2023-11-25T04:07:15.646Z,94.8
2023-11-25T04:08:46.215Z,94.9
2023-11-25T04:10:17.291Z,95.4
2023-11-25T04:11:47.881Z,94.8
2023-11-25T04:13:18.425Z,94.8
2023-11-25T04:14:48.979Z,94.8
2023-11-25T04:16:20.857Z,94.3
2023-11-25T04:17:52.208Z,95.2
2023-11-25T04:19:23.463Z,95.5
2023-11-25T04:20:54.492Z,94.1
2023-11-25T04:22:25.799Z,95.8
2023-11-25T04:23:56.348Z,95
2023-11-25T04:25:26.899Z,95.7
2023-11-25T04:26:57.593Z,95
2023-11-25T04:28:28.131Z,94.9
2023-11-25T04:29:58.723Z,95.4
2023-11-25T04:31:30.110Z,95.5
2023-11-25T04:33:00.859Z,95.3
2023-11-25T04:34:31.502Z,95.5
2023-11-25T04:36:04.452Z,95.6
2023-11-25T04:37:35.024Z,96
2023-11-25T04:39:05.480Z,95.7
2023-11-25T04:40:36.045Z,94.1
2023-11-25T04:42:06.610Z,95.4
2023-11-25T04:43:37.179Z,95.2
2023-11-25T04:45:08.044Z,95.1
2023-11-25T04:46:38.686Z,95.6
2023-11-25T04:48:09.305Z,95.1
2023-11-25T04:49:39.770Z,94.7
2023-11-25T04:51:10.379Z,95.5
2023-11-25T04:52:41.096Z,95.1
2023-11-25T04:54:32.094Z,95.6
2023-11-25T04:56:02.649Z,95.4
2023-11-25T04:57:33.202Z,95.4
2023-11-25T04:59:03.658Z,96.4
2023-11-25T05:00:34.262Z,94.8
2023-11-25T05:02:04.945Z,95.7
2023-11-25T05:03:35.740Z,96
2023-11-25T05:05:06.287Z,95.3
2023-11-25T05:06:36.909Z,94.6
2023-11-25T05:08:07.439Z,95.4
2023-11-25T05:09:37.954Z,94.6
2023-11-25T05:11:08.478Z,94.8
2023-11-25T05:12:39.022Z,94.8
2023-11-25T05:14:10.130Z,95.1
2023-11-25T05:15:40.743Z,95.1
2023-11-25T05:17:12.566Z,95.2
2023-11-25T05:18:45.533Z,95.1
2023-11-25T05:20:16.013Z,94.9
2023-11-25T05:21:47.262Z,95.6
2023-11-25T05:23:17.881Z,94.4
2023-11-25T05:24:48.407Z,95.9
2023-11-25T05:26:18.938Z,95.5
2023-11-25T05:27:49.426Z,94.6
2023-11-25T05:29:19.881Z,95.3
2023-11-25T05:30:50.469Z,94.7
2023-11-25T05:32:21.073Z,95.3
2023-11-25T05:33:51.854Z,95.4
2023-11-25T05:35:22.485Z,95
2023-11-25T05:36:52.978Z,94.4
2023-11-25T05:38:23.501Z,95
2023-11-25T05:39:54.032Z,95.2
2023-11-25T05:41:24.553Z,95.6
2023-11-25T05:42:55.317Z,95.4
2023-11-25T05:44:25.947Z,95.5
2023-11-25T05:45:59.601Z,95.4
2023-11-25T05:47:30.355Z,95.1
2023-11-25T05:49:00.854Z,95.3
2023-11-25T05:50:31.397Z,95.8
2023-11-25T05:52:02.546Z,95.7
2023-11-25T05:53:33.068Z,95.5
2023-11-25T05:55:03.587Z,95.6
2023-11-25T05:56:34.078Z,95.4
2023-11-25T05:58:04.760Z,94.9
2023-11-25T05:59:35.267Z,95.4
2023-11-25T06:01:06.532Z,95.3
2023-11-25T06:02:37.234Z,95.6
2023-11-25T06:04:07.984Z,95.1
2023-11-25T06:05:38.602Z,95.1
2023-11-25T06:07:09.335Z,94.4
2023-11-25T06:08:39.899Z,94.3
2023-11-25T06:10:10.415Z,94.9
2023-11-25T06:11:41.142Z,94.2
2023-11-25T06:13:11.737Z,95.3
2023-11-25T06:14:42.419Z,94.5
2023-11-25T06:16:13.145Z,95.4
2023-11-25T06:17:43.940Z,95.5
2023-11-25T06:19:14.745Z,95.1
2023-11-25T06:20:45.207Z,95
2023-11-25T06:22:15.752Z,94.9
2023-11-25T06:23:46.340Z,94.8
2023-11-25T06:25:16.879Z,95.1
2023-11-25T06:26:47.510Z,95.8
2023-11-25T06:28:18.092Z,95.2
2023-11-25T06:29:48.644Z,95
2023-11-25T06:31:19.275Z,94.6
2023-11-25T06:32:49.850Z,95.3
2023-11-25T06:34:23.151Z,95.2
2023-11-25T06:35:53.730Z,95.7
2023-11-25T06:37:24.370Z,95.4
2023-11-25T06:38:55.058Z,95.2
2023-11-25T06:40:25.716Z,95.9
2023-11-25T06:41:56.246Z,95.8
2023-11-25T06:43:45.606Z,95
2023-11-25T06:45:16.966Z,95.1
2023-11-25T06:46:47.910Z,95.4
2023-11-25T06:48:18.584Z,95.2
2023-11-25T06:49:49.278Z,95.4
2023-11-25T06:51:19.918Z,94.3
2023-11-25T06:52:50.719Z,94.5
2023-11-25T06:54:21.476Z,94.6
2023-11-25T06:55:52.095Z,95.5
2023-11-25T06:57:22.642Z,94.5
2023-11-25T06:58:53.456Z,95.7
2023-11-25T07:00:24.223Z,94.7
2023-11-25T07:01:54.793Z,94.8
2023-11-25T07:03:25.564Z,95.4
2023-11-25T07:04:56.346Z,94.8
2023-11-25T07:06:26.984Z,94.8
2023-11-25T07:07:57.509Z,96
2023-11-25T07:09:27.953Z,94.6
2023-11-25T07:10:58.523Z,94.7
2023-11-25T07:12:29.013Z,94.9
2023-11-25T07:13:59.548Z,94.9
2023-11-25T07:15:30.121Z,95.1
2023-11-25T07:17:00.935Z,94.2
2023-11-25T07:18:31.866Z,94.5
2023-11-25T07:20:02.456Z,94.3
2023-11-25T07:21:32.960Z,94.6
2023-11-25T07:23:03.503Z,94.6
2023-11-25T07:24:34.009Z,95.4
2023-11-25T07:26:04.493Z,95.1
2023-11-25T07:27:35.033Z,94.8
2023-11-25T07:29:05.592Z,95.3
2023-11-25T07:30:36.100Z,95
2023-11-25T07:32:06.998Z,95.1
2023-11-25T07:33:37.590Z,94.4
2023-11-25T07:35:08.084Z,94.8
2023-11-25T07:36:38.668Z,94.6
2023-11-25T07:38:12.081Z,95.8
2023-11-25T07:39:42.589Z,95.6
2023-11-25T07:41:13.109Z,94.8
2023-11-25T07:44:17.080Z,94.8
2023-11-25T07:45:47.550Z,94.5
2023-11-25T07:47:18.627Z,95.6
2023-11-25T07:48:50.357Z,94.3
2023-11-25T07:50:20.848Z,95
2023-11-25T07:51:51.420Z,95
2023-11-25T07:53:21.896Z,94.5
2023-11-25T07:54:52.423Z,95.9
2023-11-25T07:56:22.946Z,94.9
2023-11-25T07:57:53.463Z,95.3
2023-11-25T07:59:23.991Z,94.3
2023-11-25T08:00:54.456Z,95.6
2023-11-25T08:02:25.276Z,95.4
2023-11-25T08:03:56.107Z,94.7
2023-11-25T08:05:26.854Z,94.4
2023-11-25T08:06:57.328Z,95.6
2023-11-25T08:08:27.862Z,94.6
2023-11-25T08:09:58.525Z,95.5
2023-11-25T08:11:29.061Z,95.5
2023-11-25T08:13:01.897Z,95.5
2023-11-25T08:14:32.590Z,95.3
2023-11-25T08:16:03.075Z,96.3
2023-11-25T08:17:33.704Z,95.5
2023-11-25T08:19:04.263Z,94.2
2023-11-25T08:20:37.486Z,94
2023-11-25T08:22:07.981Z,94.9
2023-11-25T08:23:38.491Z,94.9
2023-11-25T08:25:09.126Z,95.6
2023-11-25T08:26:40.000Z,95.2
2023-11-25T08:28:10.506Z,95
2023-11-25T08:29:44.003Z,95.4
2023-11-25T08:31:14.596Z,94
2023-11-25T08:33:02.034Z,94.5
2023-11-25T08:34:32.656Z,95.5
2023-11-25T08:36:03.192Z,93.9
2023-11-25T08:37:33.630Z,95.1
2023-11-25T08:39:04.257Z,94.2
2023-11-25T08:40:34.789Z,94.7
2023-11-25T08:42:05.494Z,95.4
2023-11-25T08:43:35.980Z,95.2
2023-11-25T08:45:06.450Z,94.7
2023-11-25T08:46:36.907Z,95.2
2023-11-25T08:48:07.596Z,95.5
2023-11-25T08:49:38.125Z,95.6
2023-11-25T08:51:10.308Z,94.6
2023-11-25T08:52:41.381Z,95.5
2023-11-25T08:54:11.820Z,95.3
2023-11-25T08:55:42.250Z,95.1
2023-11-25T08:57:12.718Z,95.1
2023-11-25T08:58:43.255Z,94.6
2023-11-25T09:00:13.812Z,95.5
2023-11-25T09:03:20.344Z,94.4
2023-11-25T09:05:07.051Z,94.3
2023-11-25T09:06:42.299Z,94.2
2023-11-25T09:08:12.801Z,94.3
2023-11-25T09:09:43.320Z,95.1
2023-11-25T09:11:16.829Z,94.4
2023-11-25T09:12:47.349Z,94.3
2023-11-25T09:14:18.236Z,95
2023-11-25T09:15:48.934Z,94.4
2023-11-25T09:17:19.675Z,94.2
2023-11-25T09:18:50.209Z,95.9
2023-11-25T09:20:20.667Z,94.9
2023-11-25T09:21:54.011Z,95.7
2023-11-25T09:23:24.490Z,95.9
2023-11-25T09:24:55.009Z,94.9
2023-11-25T09:26:28.320Z,94.4
2023-11-25T09:27:58.814Z,95.7
2023-11-25T09:29:29.346Z,95.2
2023-11-25T09:30:59.891Z,94.5
2023-11-25T09:32:33.413Z,94.9
2023-11-25T09:34:04.280Z,95.1
2023-11-25T09:35:35.136Z,94.8
2023-11-25T09:37:05.748Z,93.7
2023-11-25T09:38:36.257Z,94.8
2023-11-25T09:40:07.035Z,95.3
2023-11-25T09:41:37.650Z,94.2
2023-11-25T09:43:08.130Z,95
2023-11-25T09:44:40.847Z,95
2023-11-25T09:46:11.362Z,94.3
2023-11-25T09:47:41.968Z,95.1
2023-11-25T09:49:12.641Z,94.7
2023-11-25T09:50:43.094Z,94.7
2023-11-25T09:52:13.615Z,95.4
2023-11-25T09:53:44.199Z,94.9
2023-11-25T09:55:14.706Z,94.5
2023-11-25T09:56:45.197Z,93.8
2023-11-25T09:58:15.749Z,95
2023-11-25T09:59:46.588Z,95.1
2023-11-25T10:01:17.066Z,94
2023-11-25T10:02:48.010Z,94.2
2023-11-25T10:04:18.978Z,93.5
2023-11-25T10:05:49.446Z,94.4
2023-11-25T10:07:20.154Z,92.6
2023-11-25T10:08:50.733Z,94.6
2023-11-25T10:10:21.283Z,94.8
2023-11-25T10:11:51.854Z,94.7
2023-11-25T10:13:22.444Z,93.9
2023-11-25T10:14:53.029Z,93.8
2023-11-25T10:16:23.616Z,92.4
2023-11-25T10:17:54.277Z,94.3
2023-11-25T10:19:25.248Z,93.3
2023-11-25T10:20:55.806Z,93.6
2023-11-25T10:22:26.302Z,92.5
2023-11-25T10:23:56.961Z,92.6
2023-11-25T10:25:27.565Z,93.8
2023-11-25T10:27:01.013Z,93.3
2023-11-25T10:28:31.570Z,93.9
2023-11-25T10:30:02.146Z,93.6
2023-11-25T10:31:32.734Z,93.2
2023-11-25T10:33:03.298Z,92.7
2023-11-25T10:34:33.960Z,91.6
2023-11-25T10:36:04.743Z,94.1
2023-11-25T10:37:35.428Z,93.9
2023-11-25T10:39:06.033Z,95
2023-11-25T10:40:36.634Z,94.8
2023-11-25T10:42:07.232Z,94.1
2023-11-25T10:43:37.896Z,93.7
2023-11-25T10:45:08.724Z,93.2
2023-11-25T10:46:39.305Z,93.7
2023-11-25T10:48:09.983Z,94.6
2023-11-25T10:49:40.623Z,93.7
2023-11-25T10:51:11.234Z,94.2
2023-11-25T10:52:41.846Z,94.2
2023-11-25T10:54:29.620Z,93.4
2023-11-25T10:56:04.534Z,94.2
2023-11-25T10:57:35.108Z,94.7
2023-11-25T10:59:05.578Z,94.8
2023-11-25T11:00:36.109Z,95.2
2023-11-25T11:02:06.968Z,94.4
2023-11-25T11:03:37.533Z,94.8
2023-11-25T11:05:08.166Z,91.8
2023-11-25T11:06:38.731Z,94.4
2023-11-25T11:08:09.175Z,94
2023-11-25T11:09:39.603Z,93.7
2023-11-25T11:11:10.030Z,94.7
2023-11-25T11:12:40.455Z,94.3
2023-11-25T11:14:10.991Z,94.4
2023-11-25T11:15:41.383Z,93.7
2023-11-25T11:17:12.054Z,94.6
2023-11-25T11:18:42.711Z,93.6
2023-11-25T11:20:13.569Z,94.1
2023-11-25T11:21:44.290Z,91.4
2023-11-25T11:23:14.743Z,95.1
2023-11-25T11:24:45.131Z,94.5
2023-11-25T11:26:15.554Z,95
2023-11-25T11:27:45.974Z,94.8
2023-11-25T11:29:16.451Z,94.3
2023-11-25T11:30:46.912Z,92.9
2023-11-25T11:32:17.406Z,94.3
2023-11-25T11:33:47.961Z,94.3
2023-11-25T11:35:18.454Z,94.4
2023-11-25T11:36:48.904Z,94.6
2023-11-25T11:38:19.323Z,93.3
2023-11-25T11:39:49.740Z,94.5
2023-11-25T11:41:20.169Z,93.5
2023-11-25T11:42:50.631Z,94
2023-11-25T11:44:21.105Z,92.9
2023-11-25T11:45:51.543Z,94.9
2023-11-25T11:47:22.104Z,95.2
2023-11-25T11:48:52.577Z,93.2
2023-11-25T11:50:23.066Z,93.6
2023-11-25T11:51:53.631Z,93.4
2023-11-25T11:53:24.140Z,93.7
2023-11-25T11:54:54.575Z,92.9
2023-11-25T11:56:24.986Z,94.3
2023-11-25T11:57:55.416Z,94.3
2023-11-25T11:59:25.924Z,92.8
2023-11-25T12:00:56.384Z,94.1
2023-11-25T12:02:27.062Z,94.7
2023-11-25T12:03:57.721Z,93.3
2023-11-25T12:05:28.576Z,94.7
2023-11-25T12:06:59.405Z,93.7
2023-11-25T12:08:30.591Z,94.5
2023-11-25T12:10:01.026Z,93.1
2023-11-25T12:11:31.552Z,92.7
2023-11-25T12:13:02.618Z,93.2
2023-11-25T12:14:33.093Z,93.8
2023-11-25T12:16:03.563Z,94.4
2023-11-25T12:17:34.336Z,93.7
2023-11-25T12:19:04.869Z,93.3
2023-11-25T12:20:35.361Z,94.1
2023-11-25T12:22:05.925Z,93.3
2023-11-25T12:23:51.560Z,94.1
2023-11-25T12:25:22.557Z,93.4
2023-11-25T12:26:53.036Z,93.6
2023-11-25T12:28:23.613Z,93.1
2023-11-25T12:29:54.252Z,93
2023-11-25T12:31:25.031Z,94.3
2023-11-25T12:32:55.704Z,92.2
2023-11-25T12:34:26.347Z,92.9
2023-11-25T12:35:56.918Z,93.4
2023-11-25T12:37:27.463Z,94.8
2023-11-25T12:38:57.954Z,93.9
2023-11-25T12:40:28.369Z,94
2023-11-25T12:41:58.891Z,91.7
2023-11-25T12:43:46.315Z,93.2
2023-11-25T12:45:16.822Z,93.9
2023-11-25T12:46:47.343Z,91.6
2023-11-25T12:48:18.049Z,93.4
2023-11-25T12:49:48.727Z,92.2
2023-11-25T12:51:19.333Z,91.5
2023-11-25T12:52:49.833Z,92.8
2023-11-25T12:54:20.287Z,93
2023-11-25T12:55:50.851Z,93.6
2023-11-25T12:57:21.376Z,91.1
2023-11-25T12:58:51.896Z,92.4
2023-11-25T13:00:22.461Z,93.2
2023-11-25T13:01:53.054Z,94.4
2023-11-25T13:03:24.153Z,92.6
2023-11-25T13:04:54.911Z,94.9
2023-11-25T13:06:25.552Z,91.9
2023-11-25T13:07:56.069Z,93
2023-11-25T13:09:26.626Z,92
2023-11-25T13:10:57.102Z,93
2023-11-25T13:12:27.771Z,94.4
2023-11-25T13:13:58.227Z,91.6
2023-11-25T13:15:28.614Z,92.7
2023-11-25T13:16:59.108Z,93.4
2023-11-25T13:18:29.706Z,93.5
2023-11-25T13:20:00.354Z,94
2023-11-25T13:21:30.870Z,93.2
2023-11-25T13:23:01.485Z,92
2023-11-25T13:24:31.949Z,93.9
2023-11-25T13:26:02.434Z,93.7
2023-11-25T13:27:33.001Z,93.7
2023-11-25T13:29:03.492Z,92.6
2023-11-25T13:30:33.936Z,92.7
2023-11-25T13:32:04.444Z,92
2023-11-25T13:33:35.171Z,93.5
2023-11-25T13:35:05.850Z,91.5
2023-11-25T13:36:36.397Z,93.5
2023-11-25T13:38:06.846Z,93.4
2023-11-25T13:39:37.385Z,92.9
2023-11-25T13:41:07.837Z,92.6
2023-11-25T13:42:38.428Z,94.7
2023-11-25T13:44:08.883Z,92.8
2023-11-25T13:45:39.373Z,93.1
2023-11-25T13:47:09.996Z,93.3
2023-11-25T13:48:40.512Z,94.1
2023-11-25T13:50:10.951Z,94.1
2023-11-25T13:51:41.426Z,93.3
2023-11-25T13:53:11.868Z,92.4
2023-11-25T13:54:42.300Z,93.7
2023-11-25T13:56:12.718Z,92.2
2023-11-25T13:57:43.146Z,90.9
2023-11-25T13:59:13.556Z,93.2
2023-11-25T14:00:44.070Z,92.8
2023-11-25T14:02:15.026Z,94.4
2023-11-25T14:03:45.712Z,92.1
2023-11-25T14:05:16.170Z,91.6
2023-11-25T14:06:46.604Z,92.4
2023-11-25T14:08:17.136Z,93.3
2023-11-25T14:09:47.652Z,92.9
2023-11-25T14:11:18.049Z,94.9
2023-11-25T14:12:48.460Z,94.8
2023-11-25T14:14:18.963Z,92.6
2023-11-25T14:15:49.591Z,93.6
2023-11-25T14:17:20.246Z,93.3
2023-11-25T14:18:50.755Z,92.8
2023-11-25T14:20:21.184Z,93.5
2023-11-25T14:21:51.638Z,93.4
2023-11-25T14:23:22.027Z,94
2023-11-25T14:24:52.442Z,94.1
2023-11-25T14:26:22.870Z,93.9
2023-11-25T14:27:53.330Z,93.2
2023-11-25T14:29:23.809Z,94
2023-11-25T14:30:54.222Z,94
2023-11-25T14:32:44.995Z,94
2023-11-25T14:34:15.693Z,94.9
2023-11-25T14:35:46.164Z,94.5
2023-11-25T14:37:16.619Z,95.3
2023-11-25T14:38:47.138Z,94.5
2023-11-25T14:40:17.697Z,95.6
2023-11-25T14:41:48.563Z,94.9
2023-11-25T14:43:19.030Z,94.5
2023-11-25T14:44:49.565Z,94.7
2023-11-25T14:46:20.111Z,92.7
2023-11-25T14:47:50.967Z,94.4
2023-11-25T14:49:21.499Z,95.3
2023-11-25T14:50:51.901Z,95.5
2023-11-25T14:52:22.399Z,95.4
2023-11-25T14:53:52.845Z,94.8
2023-11-25T14:55:23.265Z,94.2
2023-11-25T14:56:53.707Z,94.4
2023-11-25T14:58:24.110Z,94.2
2023-11-25T14:59:54.523Z,94.8
2023-11-25T15:03:25.871Z,93.9
2023-11-25T15:04:56.490Z,95.1
2023-11-25T15:06:26.949Z,93
2023-11-25T15:07:57.456Z,94.5
2023-11-25T15:09:27.976Z,93.7
2023-11-25T15:10:58.657Z,94.2
2023-11-25T15:12:29.219Z,95.4
2023-11-25T15:13:59.850Z,93.8
2023-11-25T15:15:30.485Z,95
2023-11-25T15:17:01.083Z,94.7
2023-11-25T15:18:31.835Z,94.6
2023-11-25T15:20:02.666Z,95.6
2023-11-25T15:21:33.297Z,94.7
2023-11-25T15:23:03.887Z,95.2
2023-11-25T15:24:34.742Z,94.9
2023-11-25T15:26:05.232Z,94.2
2023-11-25T15:27:35.671Z,93.8
2023-11-25T15:29:06.180Z,94.7
2023-11-25T15:30:36.826Z,95
2023-11-25T15:32:07.348Z,95.2
2023-11-25T15:33:37.869Z,94.9
2023-11-25T15:35:08.340Z,95.6
2023-11-25T15:36:38.808Z,95.2
2023-11-25T15:38:09.352Z,95.3
2023-11-25T15:39:39.880Z,94.3
2023-11-25T15:41:10.452Z,95.6
2023-11-25T15:42:40.905Z,95.6
2023-11-25T15:44:11.384Z,95.5
2023-11-25T15:45:41.861Z,95.1
2023-11-25T15:47:12.446Z,94.2
2023-11-25T15:48:43.009Z,94.4
2023-11-25T15:50:13.520Z,93.8
2023-11-25T15:51:44.037Z,94.3
2023-11-25T15:53:14.868Z,94.9
2023-11-25T15:54:45.494Z,94.8
2023-11-25T15:56:16.068Z,96
2023-11-25T15:57:46.556Z,95.6
2023-11-25T15:59:16.972Z,95.8
2023-11-25T16:00:47.422Z,96.1
2023-11-25T16:02:18.020Z,95.3
2023-11-25T16:03:48.694Z,95.5
2023-11-25T16:05:19.313Z,95.1
2023-11-25T16:06:54.342Z,95.3
2023-11-25T16:08:25.384Z,95.3
2023-11-25T16:09:55.842Z,95.1
2023-11-25T16:11:26.259Z,95.1
2023-11-25T16:12:56.692Z,94.9
2023-11-25T16:14:27.098Z,96
2023-11-25T16:15:57.574Z,94.7
2023-11-25T16:17:28.154Z,95.5
2023-11-25T16:18:58.868Z,94.9
2023-11-25T16:20:29.306Z,95.4
2023-11-25T16:21:59.829Z,95.3
2023-11-25T16:23:30.408Z,95.9
2023-11-25T16:25:00.856Z,94.7
2023-11-25T16:26:31.431Z,95.8
2023-11-25T16:28:01.908Z,95.3
2023-11-25T16:29:32.327Z,95.3
2023-11-25T16:31:03.150Z,95.8
2023-11-25T16:32:33.965Z,96
2023-11-25T16:34:04.504Z,95.5
2023-11-25T16:35:34.930Z,95.8
2023-11-25T16:37:05.369Z,95.4
2023-11-25T16:38:35.789Z,94.4
2023-11-25T16:40:06.182Z,95.3
2023-11-25T16:41:36.623Z,95.3
2023-11-25T16:43:07.283Z,95.8
2023-11-25T16:44:37.752Z,95.4
2023-11-25T16:46:08.190Z,95.3
2023-11-25T16:47:38.753Z,95.6
2023-11-25T16:49:13.283Z,95.7
2023-11-25T16:50:44.165Z,95.5
2023-11-25T16:52:14.687Z,96
2023-11-25T16:52:31.694Z,95.3
2023-11-25T16:54:02.165Z,95.6
2023-11-25T16:55:32.634Z,95.6
2023-11-25T16:57:03.287Z,95.6
2023-11-25T16:58:33.801Z,95.4
2023-11-25T17:00:04.403Z,95.5
2023-11-25T17:01:34.864Z,95
2023-11-25T17:03:05.652Z,95.9
2023-11-25T17:04:36.876Z,95.9
2023-11-25T17:06:08.159Z,95.6
2023-11-25T17:07:38.830Z,95.9
2023-11-25T17:09:09.489Z,94.4
2023-11-25T17:10:39.888Z,95.3
2023-11-25T17:12:10.408Z,95.5
2023-11-25T17:13:40.888Z,96.3
2023-11-25T17:15:11.363Z,95.3
2023-11-25T17:16:41.849Z,95.8
2023-11-25T17:18:12.518Z,95.4
2023-11-25T17:19:43.045Z,95.4
2023-11-25T17:21:13.549Z,95.2
2023-11-25T17:22:43.992Z,95.9
2023-11-25T17:24:14.562Z,95.7
2023-11-25T17:25:45.057Z,95.6
2023-11-25T17:27:15.536Z,96.2
2023-11-25T17:28:46.014Z,95.9
2023-11-25T17:30:16.492Z,95.8
2023-11-25T17:31:46.893Z,96
2023-11-25T17:33:17.432Z,95.4
2023-11-25T17:34:47.999Z,94.7
2023-11-25T17:36:18.664Z,95.2
2023-11-25T17:37:49.185Z,96.1
2023-11-25T17:39:19.836Z,95.7
2023-11-25T17:40:50.399Z,95.2
2023-11-25T17:42:20.968Z,95.1
2023-11-25T17:43:51.451Z,95.9
2023-11-25T17:45:21.951Z,95
2023-11-25T17:46:52.534Z,95.9
2023-11-25T17:48:23.096Z,96.4
2023-11-25T17:49:53.629Z,94.3
2023-11-25T17:51:24.208Z,95.2
2023-11-25T17:53:12.001Z,96.1
2023-11-25T17:54:45.033Z,95.5
2023-11-25T17:56:15.606Z,95.7
2023-11-25T17:57:46.155Z,94.9
2023-11-25T17:59:16.628Z,95.5
2023-11-25T18:00:47.111Z,95.2
2023-11-25T18:02:17.655Z,95.7
2023-11-25T18:03:48.302Z,95.6
2023-11-25T18:05:18.868Z,95.8
2023-11-25T18:06:49.393Z,95.8
2023-11-25T18:08:19.917Z,96.2
2023-11-25T18:09:50.506Z,95.8
2023-11-25T18:11:21.013Z,95.6
2023-11-25T18:12:51.531Z,95.8
2023-11-25T18:14:22.201Z,95.7
2023-11-25T18:15:52.741Z,96
2023-11-25T18:17:23.260Z,95.8
2023-11-25T18:18:53.834Z,96.2
2023-11-25T18:20:25.124Z,96
2023-11-25T18:21:55.544Z,96.1
2023-11-25T18:23:25.964Z,95.5
2023-11-25T18:24:56.448Z,96.1
2023-11-25T18:26:26.954Z,95.6
2023-11-25T18:27:57.507Z,95.8
2023-11-25T18:29:28.108Z,95.7
2023-11-25T18:30:58.755Z,96
2023-11-25T18:32:29.522Z,95.5
2023-11-25T18:34:00.148Z,95.6
2023-11-25T18:35:30.658Z,96.1
2023-11-25T18:37:01.063Z,95.8
2023-11-25T18:38:31.505Z,95.5
2023-11-25T18:40:01.983Z,95.8
2023-11-25T18:41:32.436Z,95.6
2023-11-25T18:41:49.323Z,95.4
2023-11-25T18:43:19.800Z,95.6
2023-11-25T18:44:50.277Z,96.4
2023-11-25T18:46:20.775Z,95.6
2023-11-25T18:47:51.430Z,95.8
2023-11-25T18:49:22.047Z,95.2
2023-11-25T18:50:52.463Z,95.2
2023-11-25T18:52:22.888Z,96
2023-11-25T18:53:53.325Z,95.2
2023-11-25T18:55:23.747Z,96.3
2023-11-25T18:56:54.167Z,95.8
2023-11-25T18:58:24.580Z,95.6
2023-11-25T18:59:54.991Z,95.8
2023-11-25T19:01:25.407Z,96.1
2023-11-25T19:02:56.212Z,96
2023-11-25T19:04:26.767Z,95.6
2023-11-25T19:05:57.181Z,95.8
2023-11-25T19:07:27.619Z,95.5
2023-11-25T19:08:58.064Z,94.6
2023-11-25T19:10:28.610Z,95.6
2023-11-25T19:11:59.085Z,96.6
2023-11-25T19:13:29.598Z,96
2023-11-25T19:15:00.007Z,96.3
2023-11-25T19:16:30.612Z,95.8
2023-11-25T19:18:01.245Z,95.2
2023-11-25T19:19:31.897Z,95.4
2023-11-25T19:21:02.317Z,96.3
2023-11-25T19:22:32.831Z,95.4
2023-11-25T19:24:03.252Z,96
2023-11-25T19:25:33.730Z,95.2
2023-11-25T19:27:04.189Z,94.9
2023-11-25T19:28:34.617Z,95.7
2023-11-25T19:30:05.376Z,95.3
2023-11-25T19:31:35.931Z,95.4
2023-11-25T19:33:06.495Z,95.2
2023-11-25T19:34:37.290Z,95.5
2023-11-25T19:36:07.730Z,95.5
2023-11-25T19:37:38.212Z,95.1
2023-11-25T19:39:08.669Z,96
2023-11-25T19:40:39.200Z,95.8
2023-11-25T19:42:09.762Z,95
2023-11-25T19:43:40.295Z,96
2023-11-25T19:45:10.910Z,95.5
2023-11-25T19:46:41.520Z,95.5
2023-11-25T19:48:12.294Z,95.8
2023-11-25T19:49:42.801Z,96.6
2023-11-25T19:51:13.267Z,95.4
2023-11-25T19:52:43.745Z,96.3
2023-11-25T19:54:14.215Z,95.2
2023-11-25T19:55:44.701Z,94.7
2023-11-25T19:57:15.276Z,96.2
2023-11-25T19:58:45.833Z,95.2
2023-11-25T20:00:16.603Z,95.3
2023-11-25T20:01:47.462Z,96.6
2023-11-25T20:03:18.381Z,95.7
2023-11-25T20:04:49.197Z,96.1
2023-11-25T20:06:19.611Z,95.9
2023-11-25T20:07:50.335Z,95.5
2023-11-25T20:09:20.778Z,95
2023-11-25T20:10:51.294Z,96
2023-11-25T20:12:21.714Z,95.6
2023-11-25T20:13:52.272Z,95
2023-11-25T20:15:22.753Z,95.6
2023-11-25T20:16:53.236Z,95.6
2023-11-25T20:18:23.694Z,95.9
2023-11-25T20:19:54.182Z,95.6
2023-11-25T20:21:24.748Z,96.2
2023-11-25T20:22:55.228Z,95.3
2023-11-25T20:24:25.689Z,96.2